createdAt,value
2023-05-24T00:03:26.188Z,1.4
2023-05-24T00:08:26.113Z,1.6
2023-05-24T00:13:26.164Z,1
2023-05-24T00:18:36.386Z,1.6
2023-05-24T00:24:26.076Z,1.1
2023-05-24T00:29:26.101Z,1.1
2023-05-24T00:34:26.108Z,1.3
2023-05-24T00:39:36.411Z,0.9
2023-05-24T00:45:26.110Z,1
2023-05-24T00:50:26.104Z,0.4
2023-05-24T00:55:36.379Z,0
2023-05-24T01:00:36.397Z,0.6
2023-05-24T01:05:36.391Z,0
2023-05-24T01:11:26.115Z,0
2023-05-24T01:16:36.506Z,0
2023-05-24T01:22:26.099Z,0
2023-05-24T01:27:26.167Z,0
2023-05-24T01:32:36.447Z,0
2023-05-24T01:38:26.085Z,0
2023-05-24T01:43:26.130Z,0
2023-05-24T01:48:26.166Z,0
2023-05-24T01:53:36.377Z,0
2023-05-24T01:59:26.104Z,0
2023-05-24T02:04:36.379Z,0
2023-05-24T02:09:36.408Z,0
2023-05-24T02:15:26.107Z,0
2023-05-24T02:20:36.471Z,0
2023-05-24T02:26:26.109Z,0
2023-05-24T02:31:26.186Z,0
2023-05-24T02:41:36.386Z,0
2023-05-24T02:46:36.431Z,0
2023-05-24T02:52:26.105Z,0
2023-05-24T02:57:36.360Z,0
2023-05-24T03:02:36.456Z,0
2023-05-24T03:08:26.179Z,0
2023-05-24T03:13:36.415Z,0
2023-05-24T03:19:26.137Z,0
2023-05-24T03:30:26.105Z,0
2023-05-24T03:35:36.360Z,0
2023-05-24T03:40:36.383Z,0
2023-05-24T03:46:26.170Z,0
2023-05-24T03:51:36.407Z,0
2023-05-24T03:57:26.110Z,0
2023-05-24T04:02:36.464Z,0
2023-05-24T04:07:36.395Z,0
2023-05-24T04:13:26.113Z,0
2023-05-24T04:18:36.491Z,0
2023-05-24T04:23:36.415Z,0
2023-05-24T04:28:36.432Z,0
2023-05-24T04:34:26.087Z,0
2023-05-24T04:39:26.145Z,0
2023-05-24T04:44:36.408Z,0
2023-05-24T04:50:26.126Z,0
2023-05-24T04:55:36.412Z,0
2023-05-24T05:00:36.414Z,0
2023-05-24T05:06:26.091Z,0
2023-05-24T05:11:26.120Z,0
2023-05-24T05:16:36.469Z,0
2023-05-24T05:22:26.124Z,0.5
2023-05-24T05:27:36.393Z,1.3
2023-05-24T05:32:36.517Z,1.7
2023-05-24T05:37:36.431Z,2.3
2023-05-24T05:43:26.117Z,3.4
2023-05-24T05:48:36.376Z,4.8
2023-05-24T05:53:36.494Z,4.6
2023-05-24T05:59:26.142Z,5.7
2023-05-24T06:04:36.410Z,5
2023-05-24T06:10:26.108Z,5.3
2023-05-24T06:15:26.126Z,5.4
2023-05-24T06:20:26.155Z,5.2
2023-05-24T06:25:36.406Z,5.2
2023-05-24T06:31:26.322Z,7
2023-05-24T06:41:36.424Z,6.8
2023-05-24T06:47:26.319Z,6.9
2023-05-24T06:52:36.406Z,7
2023-05-24T06:58:26.209Z,7.4
2023-05-24T07:03:36.442Z,9.2
2023-05-24T07:09:26.141Z,9.3
2023-05-24T07:14:26.193Z,8
2023-05-24T07:19:26.147Z,8.6
2023-05-24T07:24:26.209Z,9.8
2023-05-24T07:29:36.499Z,8.7
2023-05-24T07:35:26.167Z,8.1
2023-05-24T07:40:26.136Z,8.2
2023-05-24T07:45:36.431Z,6.7
2023-05-24T07:51:26.147Z,6.8
2023-05-24T07:56:26.174Z,8.7
2023-05-24T08:01:36.435Z,10.1
2023-05-24T08:07:26.227Z,12.6
2023-05-24T08:12:36.419Z,11.1
2023-05-24T08:17:36.818Z,11.8
2023-05-24T08:23:26.188Z,13.8
2023-05-24T08:28:36.448Z,13.7
2023-05-24T08:34:26.144Z,13.6
2023-05-24T08:39:26.151Z,12.2
2023-05-24T08:44:36.429Z,15.2
2023-05-24T08:49:36.449Z,13.1
2023-05-24T08:55:26.153Z,13.4
2023-05-24T09:00:26.156Z,12.8
2023-05-24T09:05:36.431Z,15.2
2023-05-24T09:17:26.154Z,14.2
2023-05-24T09:22:26.150Z,15.3
2023-05-24T09:27:36.455Z,14
2023-05-24T09:33:26.178Z,14.1
2023-05-24T09:38:26.170Z,13.1
2023-05-24T09:43:26.634Z,13.4
2023-05-24T09:48:26.228Z,13.3
2023-05-24T09:53:36.481Z,12.1
2023-05-24T09:58:36.442Z,13.2
2023-05-24T10:04:26.251Z,13.2
2023-05-24T10:09:36.426Z,13.3
2023-05-24T10:14:36.496Z,13.6
2023-05-24T10:20:26.241Z,12.4
2023-05-24T10:25:36.454Z,12.1
2023-05-24T10:46:36.512Z,12.1
2023-05-24T10:52:26.192Z,11.7
2023-05-24T10:57:36.477Z,10.7
2023-05-24T11:03:26.197Z,11
2023-05-24T11:08:26.187Z,11.5
2023-05-24T11:13:36.475Z,12.8
2023-05-24T11:18:36.491Z,13
2023-05-24T11:24:26.192Z,12.2
2023-05-24T11:29:38.172Z,12.3
2023-05-24T11:40:26.191Z,12.8
2023-05-24T11:45:26.210Z,12.7
2023-05-24T11:50:26.955Z,13
2023-05-24T11:55:36.488Z,13.1
2023-05-24T12:00:36.506Z,11.5
2023-05-24T12:05:36.509Z,11.3
2023-05-24T12:10:36.498Z,10.7
2023-05-24T12:16:26.223Z,10.8
2023-05-24T12:21:26.219Z,10.2
2023-05-24T12:26:36.653Z,10.5
2023-05-24T12:32:26.256Z,12.2
2023-05-24T12:37:26.242Z,11.7
2023-05-24T12:42:36.517Z,11.3
2023-05-24T12:48:26.217Z,11.9
2023-05-24T12:53:36.505Z,10.1
2023-05-24T12:58:36.518Z,11.3
2023-05-24T13:04:26.623Z,10.9
2023-05-24T13:09:36.520Z,11.2
2023-05-24T13:15:26.225Z,11.2
2023-05-24T13:20:36.615Z,11.1
2023-05-24T13:25:36.541Z,9.8
2023-05-24T13:31:26.262Z,10.7
2023-05-24T13:36:26.241Z,10.8
2023-05-24T13:41:26.259Z,11.4
2023-05-24T13:51:36.543Z,11.6
2023-05-24T13:57:31.333Z,10.5
2023-05-24T14:02:26.260Z,11.8
2023-05-24T14:07:26.351Z,11
2023-05-24T14:12:36.522Z,10.7
2023-05-24T14:17:36.575Z,11.3
2023-05-24T14:23:26.249Z,11.2
2023-05-24T14:28:26.253Z,11.2
2023-05-24T14:34:26.254Z,10.3
2023-05-24T14:39:26.264Z,9.7
2023-05-24T14:44:36.529Z,10.3
2023-05-24T14:49:36.570Z,10.9
2023-05-24T14:55:26.232Z,10.1
2023-05-24T15:00:28.343Z,9.3
2023-05-24T15:06:26.299Z,9.1
2023-05-24T15:11:36.648Z,10.7
2023-05-24T15:17:26.455Z,10.1
2023-05-24T15:22:36.547Z,9.6
2023-05-24T15:27:36.582Z,9.4
2023-05-24T15:33:26.310Z,10.2
2023-05-24T15:38:36.582Z,9.9
2023-05-24T15:44:26.280Z,10.7
2023-05-24T15:49:36.545Z,10.4
2023-05-24T15:54:36.567Z,10.3
2023-05-24T15:59:36.581Z,9.6
2023-05-24T16:05:26.258Z,9.3
2023-05-24T16:10:36.534Z,9
2023-05-24T16:15:36.570Z,8.8
2023-05-24T16:20:36.815Z,9
2023-05-24T16:26:26.236Z,8.6
2023-05-24T16:41:36.632Z,8
2023-05-24T16:47:28.816Z,8.1
2023-05-24T16:52:26.261Z,7
2023-05-24T16:57:26.277Z,7.3
2023-05-24T17:02:36.674Z,6.5
2023-05-24T17:08:26.289Z,6
2023-05-24T17:13:36.567Z,6.2
2023-05-24T17:18:36.570Z,6.8
2023-05-24T17:23:36.604Z,6.4
2023-05-24T17:29:26.299Z,6
2023-05-24T17:34:26.281Z,6.2
2023-05-24T17:39:36.568Z,5.6
2023-05-24T17:45:26.291Z,5.6
2023-05-24T17:50:36.574Z,5.4
2023-05-24T17:55:36.552Z,5.4
2023-05-24T18:01:26.296Z,5.2
2023-05-24T18:11:36.555Z,5.7
2023-05-24T18:16:36.611Z,4.7
2023-05-24T18:21:36.606Z,4.5
2023-05-24T18:26:36.644Z,4.6
2023-05-24T18:32:26.314Z,4.7
2023-05-24T18:37:36.547Z,4.6
2023-05-24T18:42:36.565Z,4.2
2023-05-24T18:48:26.344Z,4.6
2023-05-24T18:53:36.574Z,4
2023-05-24T18:59:26.272Z,4.1
2023-05-24T19:04:26.309Z,3.5
2023-05-24T19:09:26.308Z,3.6
2023-05-24T19:14:36.588Z,3.4
2023-05-24T19:19:36.593Z,3.4
2023-05-24T19:24:36.614Z,3.4
2023-05-24T19:30:26.335Z,3.5
2023-05-24T19:35:36.716Z,3
2023-05-24T19:40:36.589Z,3.1
2023-05-24T19:45:36.596Z,3.1
2023-05-24T19:51:26.317Z,3
2023-05-24T19:56:26.312Z,2.8
2023-05-24T20:01:36.579Z,2.6
2023-05-24T20:06:36.580Z,2.6
2023-05-24T20:12:26.307Z,2.5
2023-05-24T20:17:36.620Z,2.3
2023-05-24T20:22:36.642Z,2.4
2023-05-24T20:28:30.837Z,2.5
2023-05-24T20:33:26.300Z,2.2
2023-05-24T20:38:26.334Z,2.3
2023-05-24T20:43:36.616Z,2
2023-05-24T20:49:26.297Z,1.6
2023-05-24T20:54:36.592Z,1.5
2023-05-24T21:00:26.330Z,1.7
2023-05-24T21:05:26.323Z,1.4
2023-05-24T21:10:36.580Z,1.5
2023-05-24T21:15:36.613Z,1.3
2023-05-24T21:20:36.698Z,1.1
2023-05-24T21:25:36.614Z,0.9
2023-05-24T21:30:36.678Z,0.8
2023-05-24T21:35:36.669Z,1.1
2023-05-24T21:41:26.325Z,1
2023-05-24T21:46:26.342Z,1
2023-05-24T21:51:36.575Z,0.9
2023-05-24T21:56:36.585Z,0.9
2023-05-24T22:01:36.627Z,0.9
2023-05-24T22:06:46.880Z,0.7
2023-05-24T22:12:26.304Z,0.6
2023-05-24T22:17:26.357Z,0.5
2023-05-24T22:22:36.625Z,0.6
2023-05-24T22:28:26.305Z,0.5
2023-05-24T22:33:36.606Z,0
2023-05-24T22:38:36.613Z,0
2023-05-24T22:43:36.632Z,0
2023-05-24T22:49:26.311Z,0
2023-05-24T22:59:26.365Z,0
2023-05-24T23:04:36.644Z,0
2023-05-24T23:09:36.651Z,0
2023-05-24T23:15:26.309Z,0
2023-05-24T23:20:26.385Z,0
2023-05-24T23:25:26.325Z,0
2023-05-24T23:30:36.610Z,0
2023-05-24T23:35:36.637Z,0
2023-05-24T23:41:26.324Z,0
2023-05-24T23:46:26.430Z,0
2023-05-24T23:51:36.631Z,0
2023-05-24T23:56:36.611Z,0
